Observations for NAPLES CAPODICHINO, Italy (LIRN)

LIRN 230520Z VRB01KT 8000 NSC 15/13 Q1017 NOSIG 
LIRN 230450Z AUTO 25002KT 9999 NCD 14/13 Q1016  
LIRN 230420Z AUTO VRB01KT 9999 NCD 13/12 Q1016  
LIRN 230350Z AUTO VRB01KT 9999 SCT049/// 13/12 Q1016
LIRN 230320Z AUTO 07003KT 9999 FEW044/// 14/12 Q1016
LIRN 230250Z AUTO 03001KT 9999 FEW016/// 13/12 Q1016
LIRN 230220Z AUTO VRB01KT 9999 NCD 14/12 Q1017  
LIRN 230150Z AUTO 36002KT 9999 NCD 13/12 Q1017  
LIRN 230120Z AUTO VRB02KT 9999 NCD 14/12 Q1017  
LIRN 230050Z AUTO VRB01KT 9999 FEW020/// 14/12 Q1017
LIRN 230020Z AUTO VRB01KT 9999 FEW020/// 15/13 Q1017
LIRN 222350Z AUTO VRB02KT 9999 BKN019/// 16/13 Q1017
LIRN 222320Z AUTO VRB01KT 9999 FEW015/// 16/13 Q1017
LIRN 222250Z AUTO 28002KT 9999 BKN016/// 16/13 Q1017
LIRN 222220Z AUTO VRB01KT 9999 BKN014/// 16/14 Q1017
LIRN 222150Z AUTO VRB01KT 9999 BKN015/// 16/14 Q1017
LIRN 222120Z AUTO VRB02KT 9999 BKN015/// 17/14 Q1017
LIRN 222050Z 20001KT 9999 FEW020 16/14 Q1017 NOSIG  
LIRN 222020Z VRB01KT 9999 FEW020 16/14 Q1017 NOSIG  
LIRN 221950Z 20003KT 170V230 9999 FEW020 16/14 Q1017 NOSIG  
LIRN 221920Z 20003KT 170V230 9999 FEW020 17/14 Q1017 NOSIG  
LIRN 221850Z 20003KT 140V240 9999 FEW025 17/14 Q1016 NOSIG  
LIRN 221820Z 20005KT 180V240 9999 FEW025 17/14 Q1016 NOSIG  
LIRN 221750Z 20005KT 170V230 9999 FEW025 17/14 Q1016 NOSIG  
LIRN 221720Z 20006KT 180V240 9999 FEW030 18/14 Q1016 NOSIG  
LIRN 221650Z 21006KT 180V250 9999 FEW030 19/14 Q1016 NOSIG  
LIRN 221620Z 22007KT 190V250 9999 FEW030 19/13 Q1016 NOSIG  
LIRN 221550Z 22009KT 190V260 9999 FEW030 19/13 Q1016 NOSIG  
LIRN 221520Z 22009KT 190V250 9999 FEW030 19/13 Q1016 NOSIG  
LIRN 221450Z 21010KT 180V240 9999 FEW030 19/13 Q1017 NOSIG  
LIRN 221420Z 21011KT 180V250 9999 FEW030 19/13 Q1017 NOSIG  
LIRN 221350Z 21010KT 180V250 9999 FEW030 20/13 Q1017 NOSIG  
LIRN 221320Z 22009KT 160V250 9999 FEW030 20/14 Q1017 NOSIG  
LIRN 221250Z 22008KT 180V260 9999 SCT030 20/10 Q1017 NOSIG  
LIRN 221220Z 21009KT 160V240 9999 SCT030 20/11 Q1017 NOSIG  
LIRN 221150Z 22009KT 180V250 9999 SCT030 20/12 Q1017 NOSIG  
LIRN 221120Z 21009KT 180V250 9999 SCT030 20/12 Q1017 NOSIG  
LIRN 221050Z 21008KT 180V260 9999 SCT030 20/11 Q1017 NOSIG  
LIRN 221020Z 21007KT 160V260 9999 FEW030 19/10 Q1017 NOSIG  
LIRN 220950Z 21006KT 160V260 9999 SCT030 20/12 Q1017 NOSIG  
LIRN 220920Z 20005KT 120V270 9999 SCT030 19/12 Q1017 NOSIG  
LIRN 220850Z 23006KT 140V280 9999 FEW015 SCT030 18/13 Q1017 NOSIG   
LIRN 220820Z 20005KT 130V260 9999 FEW015 SCT030 18/13 Q1017 NOSIG   
LIRN 220750Z 22006KT 190V250 9999 FEW015 SCT030 18/12 Q1017 NOSIG   
LIRN 220720Z 21005KT 170V250 9999 FEW015 SCT030 18/13 Q1017 NOSIG   
LIRN 220650Z 21005KT 170V250 9999 FEW015 SCT030 17/13 Q1017 NOSIG   
LIRN 220620Z 20005KT 160V250 9999 FEW015 SCT030 17/13 Q1017 NOSIG   
LIRN 220550Z 20003KT 160V230 9999 FEW012 SCT030 17/13 Q1017 NOSIG   
LIRN 220520Z VRB02KT 9999 SCT020 15/13 Q1017 NOSIG  
LIRN 220450Z 05002KT 9999 SCT020 13/12 Q1017 NOSIG